createdAt,value
2019-04-06T00:00:09.631Z,0.90
2019-04-06T00:02:38.600Z,1.20
2019-04-06T00:05:07.397Z,0.90
2019-04-06T00:07:35.971Z,0.90
2019-04-06T00:10:04.516Z,0.80
2019-04-06T00:12:32.544Z,1.00
2019-04-06T00:15:00.793Z,0.90
2019-04-06T00:17:29.481Z,1.10
2019-04-06T00:19:57.839Z,0.80
2019-04-06T00:22:25.959Z,0.83
2019-04-06T00:24:54.305Z,1.17
2019-04-06T00:27:24.581Z,1.07
2019-04-06T00:29:52.903Z,0.93
2019-04-06T00:32:30.996Z,1.00
2019-04-06T00:34:59.500Z,1.00
2019-04-06T00:37:27.595Z,0.97
2019-04-06T00:39:56.238Z,1.00
2019-04-06T00:42:24.324Z,0.80
2019-04-06T00:44:52.491Z,1.00
2019-04-06T00:47:20.776Z,1.00
2019-04-06T00:49:48.844Z,1.37
2019-04-06T00:52:17.027Z,1.17
2019-04-06T00:54:45.043Z,1.20
2019-04-06T00:57:13.151Z,0.90
2019-04-06T00:59:41.135Z,1.00
2019-04-06T01:02:09.604Z,1.03
2019-04-06T01:04:37.580Z,1.37
2019-04-06T01:07:05.946Z,1.07
2019-04-06T01:09:34.330Z,1.20
2019-04-06T01:12:02.734Z,1.30
2019-04-06T01:14:30.789Z,0.97
2019-04-06T01:16:58.993Z,1.20
2019-04-06T01:19:26.925Z,1.13
2019-04-06T01:21:55.124Z,1.00
2019-04-06T01:24:23.105Z,0.90
2019-04-06T01:26:51.744Z,1.27
2019-04-06T01:29:19.945Z,0.97
2019-04-06T01:31:47.919Z,1.20
2019-04-06T01:34:16.069Z,0.97
2019-04-06T01:36:44.364Z,1.20
2019-04-06T01:39:12.724Z,1.17
2019-04-06T01:41:40.802Z,0.87
2019-04-06T01:44:08.994Z,1.03
2019-04-06T01:46:36.927Z,1.00
2019-04-06T01:49:05.640Z,0.90
2019-04-06T01:51:33.678Z,1.20
2019-04-06T01:54:01.919Z,1.10
2019-04-06T01:56:29.876Z,1.00
2019-04-06T01:58:58.020Z,1.00
2019-04-06T02:01:48.193Z,1.13
2019-04-06T02:04:16.495Z,1.00
2019-04-06T02:06:44.843Z,1.03
2019-04-06T02:09:14.779Z,0.90
2019-04-06T02:11:43.457Z,1.00
2019-04-06T02:14:11.562Z,0.80
2019-04-06T02:16:40.107Z,0.80
2019-04-06T02:19:08.311Z,0.87
2019-04-06T02:21:36.665Z,1.10
2019-04-06T02:24:04.836Z,0.90
2019-04-06T02:26:32.929Z,0.70
2019-04-06T02:29:00.868Z,0.93
2019-04-06T02:31:54.481Z,0.70
2019-04-06T02:34:44.632Z,0.87
2019-04-06T02:37:38.017Z,1.03
2019-04-06T02:40:13.545Z,1.07
2019-04-06T02:42:46.063Z,1.20
2019-04-06T02:45:16.979Z,1.30
2019-04-06T02:47:44.950Z,0.90
2019-04-06T02:50:13.351Z,0.95
2019-04-06T02:52:41.084Z,1.25
2019-04-06T02:55:08.887Z,1.23
2019-04-06T02:57:36.580Z,1.03
2019-04-06T03:00:05.624Z,1.10
2019-04-06T03:02:33.469Z,1.30
2019-04-06T03:05:01.247Z,1.23
2019-04-06T03:07:28.950Z,1.03
2019-04-06T03:09:56.768Z,0.90
2019-04-06T03:12:29.062Z,0.87
2019-04-06T03:14:56.860Z,0.90
2019-04-06T03:17:24.668Z,1.10
2019-04-06T03:20:05.198Z,1.00
2019-04-06T03:22:34.262Z,1.20
2019-04-06T03:25:12.000Z,0.97
2019-04-06T03:27:39.733Z,0.80
2019-04-06T03:30:08.286Z,1.07
2019-04-06T03:32:36.314Z,1.20
2019-04-06T03:35:04.709Z,1.10
2019-04-06T03:37:32.398Z,1.10
2019-04-06T03:40:00.742Z,0.83
2019-04-06T03:42:28.414Z,0.90
2019-04-06T03:44:56.893Z,1.10
2019-04-06T03:47:24.543Z,1.00
2019-04-06T03:49:52.339Z,1.33
2019-04-06T03:52:20.153Z,1.10
2019-04-06T03:54:50.576Z,1.50
2019-04-06T03:57:18.310Z,1.30
2019-04-06T03:59:46.064Z,0.80
2019-04-06T04:02:13.919Z,1.20
2019-04-06T04:04:41.799Z,0.97
2019-04-06T04:07:09.664Z,1.10
2019-04-06T04:09:37.376Z,3.63
2019-04-06T04:12:05.077Z,3.53
2019-04-06T04:14:32.937Z,2.67
2019-04-06T04:17:00.693Z,1.37
2019-04-06T04:19:31.132Z,1.50
2019-04-06T04:21:58.986Z,2.00
2019-04-06T04:24:26.664Z,1.70
2019-04-06T04:26:54.368Z,1.20
2019-04-06T04:29:22.057Z,1.53
2019-04-06T04:31:49.833Z,1.60
2019-04-06T04:34:19.648Z,0.90
2019-04-06T04:36:47.361Z,1.10
2019-04-06T04:39:15.078Z,1.57
2019-04-06T04:41:42.757Z,1.13
2019-04-06T04:44:10.648Z,1.03
2019-04-06T04:46:38.459Z,1.17
2019-04-06T04:49:06.227Z,1.40
2019-04-06T04:51:33.963Z,1.50
2019-04-06T04:54:01.724Z,1.30
2019-04-06T04:56:29.443Z,1.40
2019-04-06T04:58:57.119Z,1.10
2019-04-06T05:01:24.931Z,1.20
2019-04-06T05:03:52.636Z,0.93
2019-04-06T05:06:23.423Z,1.20
2019-04-06T05:08:51.100Z,1.07
2019-04-06T05:11:18.799Z,0.97
2019-04-06T05:13:46.495Z,1.10
2019-04-06T05:16:14.551Z,1.40
2019-04-06T05:18:42.793Z,1.37
2019-04-06T05:21:11.752Z,1.20
2019-04-06T05:23:39.490Z,1.60
2019-04-06T05:26:07.479Z,1.10
2019-04-06T05:28:35.159Z,1.30
2019-04-06T05:31:02.976Z,1.40
2019-04-06T05:33:30.717Z,1.30
2019-04-06T05:35:58.488Z,1.33
2019-04-06T05:38:26.280Z,1.17
2019-04-06T05:40:54.062Z,2.77
2019-04-06T05:43:23.085Z,1.40
2019-04-06T05:45:50.810Z,1.50
2019-04-06T05:48:18.544Z,1.57
2019-04-06T05:50:46.220Z,2.13
2019-04-06T05:53:13.959Z,1.27
2019-04-06T05:55:41.681Z,1.33
2019-04-06T05:58:10.605Z,1.40
2019-04-06T06:00:40.604Z,2.00
2019-04-06T06:03:10.791Z,1.63
2019-04-06T06:05:40.341Z,1.80
2019-04-06T06:08:07.816Z,1.60
2019-04-06T06:10:38.162Z,1.53
2019-04-06T06:13:05.230Z,1.50
2019-04-06T06:15:32.904Z,1.47
2019-04-06T06:18:00.871Z,1.30
2019-04-06T06:20:28.636Z,1.97
2019-04-06T06:22:56.393Z,1.67
2019-04-06T06:25:24.408Z,1.23
2019-04-06T06:27:52.082Z,1.40
2019-04-06T06:30:20.200Z,1.47
2019-04-06T06:32:48.057Z,1.50
2019-04-06T06:35:16.020Z,1.23
2019-04-06T06:37:43.749Z,1.33
2019-04-06T06:40:11.621Z,1.53
2019-04-06T06:42:39.315Z,1.40
2019-04-06T06:45:07.059Z,1.37
2019-04-06T06:47:34.768Z,1.50
2019-04-06T06:50:02.478Z,1.60
2019-04-06T06:52:30.174Z,2.20
2019-04-06T06:54:57.895Z,1.87
2019-04-06T06:57:25.584Z,2.23
2019-04-06T06:59:53.312Z,1.47
2019-04-06T07:02:21.007Z,2.17
2019-04-06T07:04:48.739Z,1.40
2019-04-06T07:07:16.480Z,1.93
2019-04-06T07:09:44.467Z,1.57
2019-04-06T07:12:12.206Z,1.67
2019-04-06T07:14:39.908Z,1.80
2019-04-06T07:17:07.753Z,1.80
2019-04-06T07:19:35.419Z,2.03
2019-04-06T07:22:03.325Z,2.13
2019-04-06T07:24:31.595Z,1.20
2019-04-06T07:26:59.647Z,1.50
2019-04-06T07:29:27.349Z,1.40
2019-04-06T07:31:56.089Z,1.10
2019-04-06T07:34:24.356Z,1.27
2019-04-06T07:36:52.727Z,1.13
2019-04-06T07:39:21.195Z,1.90
2019-04-06T07:41:49.487Z,0.90
2019-04-06T07:44:17.861Z,1.20
2019-04-06T07:46:46.237Z,1.07
2019-04-06T07:49:13.934Z,1.00
2019-04-06T07:51:41.639Z,1.07
2019-04-06T07:54:09.363Z,0.63
2019-04-06T07:56:37.031Z,1.27
2019-04-06T07:59:05.004Z,0.80
2019-04-06T08:01:33.179Z,0.93
2019-04-06T08:04:00.913Z,0.90
2019-04-06T08:06:28.594Z,0.80
2019-04-06T08:08:56.291Z,1.00
2019-04-06T08:11:24.015Z,0.70
2019-04-06T08:13:51.696Z,1.20
2019-04-06T08:16:19.424Z,1.40
2019-04-06T08:18:47.141Z,0.90
2019-04-06T08:21:15.464Z,1.00
2019-04-06T08:23:43.534Z,0.80
2019-04-06T08:26:11.619Z,1.33
2019-04-06T08:28:39.592Z,1.90
2019-04-06T08:31:07.839Z,1.30
2019-04-06T08:33:36.148Z,1.07
2019-04-06T08:36:03.994Z,1.17
2019-04-06T08:38:31.850Z,0.90
2019-04-06T08:41:00.564Z,0.90
2019-04-06T08:43:28.732Z,0.90
2019-04-06T08:45:56.459Z,0.80
2019-04-06T08:48:24.141Z,1.30
2019-04-06T08:50:51.839Z,0.87
2019-04-06T08:53:19.572Z,0.97
2019-04-06T08:55:47.250Z,0.70
2019-04-06T08:58:14.964Z,0.73
2019-04-06T09:00:42.671Z,0.90
2019-04-06T09:03:10.418Z,1.10
2019-04-06T09:05:38.107Z,1.03
2019-04-06T09:08:05.827Z,1.53
2019-04-06T09:10:33.507Z,1.40
2019-04-06T09:13:01.179Z,1.77
2019-04-06T09:15:29.268Z,1.47
2019-04-06T09:17:57.445Z,0.83
2019-04-06T09:20:25.375Z,1.80
2019-04-06T09:22:54.084Z,1.73
2019-04-06T09:25:22.153Z,1.77
2019-04-06T09:27:50.345Z,2.50
2019-04-06T09:30:18.303Z,1.50
2019-04-06T09:32:46.005Z,2.00
2019-04-06T09:35:14.122Z,2.10
2019-04-06T09:37:42.500Z,2.20
2019-04-06T09:40:10.684Z,2.53
2019-04-06T09:42:38.683Z,2.23
2019-04-06T09:45:24.974Z,3.37
2019-04-06T09:48:18.395Z,2.63
2019-04-06T09:51:18.135Z,2.93
2019-04-06T09:54:07.160Z,2.70
2019-04-06T09:56:50.720Z,3.83
2019-04-06T09:59:48.196Z,2.90
2019-04-06T10:02:27.027Z,2.53
2019-04-06T10:05:29.273Z,2.43
2019-04-06T10:08:31.465Z,2.10
2019-04-06T10:11:18.642Z,1.90
2019-04-06T10:14:13.096Z,1.67
2019-04-06T10:17:00.330Z,1.50
2019-04-06T10:20:03.156Z,1.60
2019-04-06T10:22:42.984Z,1.50
2019-04-06T10:25:26.692Z,1.67
2019-04-06T10:28:16.255Z,1.30
2019-04-06T10:31:16.183Z,1.80
2019-04-06T10:34:07.856Z,1.90
2019-04-06T10:36:44.364Z,1.60
2019-04-06T10:39:38.247Z,1.50
2019-04-06T10:42:31.589Z,2.00
2019-04-06T10:45:14.400Z,1.47
2019-04-06T10:48:00.508Z,1.60
2019-04-06T10:50:46.275Z,1.67
2019-04-06T10:53:32.164Z,1.47
2019-04-06T10:56:10.496Z,1.80
2019-04-06T10:58:56.998Z,1.30
2019-04-06T11:01:47.134Z,1.42
2019-04-06T11:04:27.847Z,1.10
2019-04-06T11:07:14.579Z,1.40
2019-04-06T11:10:13.724Z,1.87
2019-04-06T11:12:58.556Z,1.70
2019-04-06T11:15:54.702Z,2.17
2019-04-06T11:18:33.103Z,1.10
2019-04-06T11:21:24.582Z,1.10
2019-04-06T11:24:02.197Z,0.93
2019-04-06T11:26:36.766Z,0.40
2019-04-06T11:29:20.756Z,0.70
2019-04-06T11:32:11.054Z,0.70
2019-04-06T11:35:07.945Z,1.00
2019-04-06T11:37:55.078Z,0.70
2019-04-06T11:40:45.591Z,0.67
2019-04-06T11:43:25.343Z,0.70
2019-04-06T11:46:07.748Z,0.70
2019-04-06T11:48:45.130Z,0.50
2019-04-06T11:51:22.957Z,0.40
2019-04-06T11:54:15.926Z,0.50
2019-04-06T11:57:06.003Z,0.87
2019-04-06T12:00:08.464Z,0.70
2019-04-06T12:02:53.884Z,0.70
2019-04-06T12:05:41.219Z,0.70
2019-04-06T12:08:40.639Z,0.60
2019-04-06T12:11:36.447Z,0.40
2019-04-06T12:14:24.589Z,0.60
2019-04-06T12:17:14.405Z,0.63
2019-04-06T12:20:10.699Z,1.10
2019-04-06T12:22:53.575Z,1.20
2019-04-06T12:25:36.273Z,1.30
2019-04-06T12:28:21.916Z,1.57
2019-04-06T12:31:03.099Z,1.30
2019-04-06T12:33:56.060Z,1.20
2019-04-06T12:36:31.686Z,1.17
2019-04-06T12:39:27.808Z,1.10
2019-04-06T12:42:20.627Z,1.23
2019-04-06T12:45:12.896Z,1.20
2019-04-06T12:48:18.337Z,1.00
2019-04-06T12:51:11.475Z,1.20
2019-04-06T12:53:45.163Z,1.40
2019-04-06T12:56:24.401Z,1.13
2019-04-06T12:59:06.296Z,1.03
2019-04-06T13:01:53.566Z,1.30
2019-04-06T13:04:46.670Z,1.00
2019-04-06T13:07:35.299Z,1.10
2019-04-06T13:10:40.776Z,1.00
2019-04-06T13:13:17.564Z,1.00
2019-04-06T13:15:53.286Z,1.00
2019-04-06T13:18:52.280Z,1.00
2019-04-06T13:21:39.419Z,2.00
2019-04-06T13:24:23.011Z,1.30
2019-04-06T13:27:19.706Z,1.00
2019-04-06T13:30:05.576Z,1.00
2019-04-06T13:33:10.976Z,0.90
2019-04-06T13:35:47.820Z,1.00
2019-04-06T13:38:37.885Z,0.90
2019-04-06T13:41:29.591Z,1.00
2019-04-06T13:44:07.572Z,0.90
2019-04-06T13:46:55.894Z,0.90
2019-04-06T13:49:48.012Z,1.00
2019-04-06T13:52:40.816Z,1.00
2019-04-06T13:55:30.831Z,0.90
2019-04-06T13:58:06.815Z,1.10
2019-04-06T14:01:16.342Z,0.80
2019-04-06T14:04:01.152Z,0.90
2019-04-06T14:06:45.041Z,0.80
2019-04-06T14:09:35.799Z,1.00
2019-04-06T14:12:26.198Z,0.90
2019-04-06T14:15:21.210Z,1.10
2019-04-06T14:18:07.341Z,1.00
2019-04-06T14:20:54.531Z,1.00
2019-04-06T14:23:53.713Z,1.07
2019-04-06T14:26:43.435Z,0.90
2019-04-06T14:29:30.622Z,0.90
2019-04-06T14:32:18.229Z,1.00
2019-04-06T14:35:04.066Z,0.90
2019-04-06T14:37:45.180Z,1.00
2019-04-06T14:40:47.464Z,1.00
2019-04-06T14:43:34.596Z,0.80
2019-04-06T14:46:24.544Z,0.90
2019-04-06T14:49:30.723Z,1.00
2019-04-06T14:52:14.069Z,0.90
2019-04-06T14:55:11.037Z,0.90
2019-04-06T14:57:57.196Z,1.10
2019-04-06T15:00:42.993Z,1.00
2019-04-06T15:03:33.499Z,0.90
2019-04-06T15:06:12.851Z,0.90
2019-04-06T15:08:47.691Z,1.00
2019-04-06T15:11:30.624Z,1.10
2019-04-06T15:14:20.750Z,0.90
2019-04-06T15:17:07.958Z,1.00
2019-04-06T15:19:50.521Z,1.00
2019-04-06T15:22:43.651Z,1.00
2019-04-06T15:25:31.048Z,0.90
2019-04-06T15:28:16.855Z,1.10
2019-04-06T15:31:10.084Z,1.00
2019-04-06T15:34:00.142Z,1.20
2019-04-06T15:36:46.660Z,0.90
2019-04-06T15:39:25.453Z,1.10
2019-04-06T15:42:18.439Z,0.90
2019-04-06T15:45:20.451Z,1.00
2019-04-06T15:48:20.371Z,0.90
2019-04-06T15:51:10.147Z,1.00
2019-04-06T15:53:46.359Z,0.90
2019-04-06T15:56:33.455Z,1.00
2019-04-06T15:59:38.625Z,1.00
2019-04-06T16:02:28.854Z,1.07
2019-04-06T16:05:14.476Z,1.10
2019-04-06T16:07:56.027Z,1.00
2019-04-06T16:10:58.128Z,0.90
2019-04-06T16:13:43.608Z,0.97
2019-04-06T16:16:19.537Z,0.87
2019-04-06T16:18:58.328Z,1.20
2019-04-06T16:21:51.325Z,1.10
2019-04-06T16:24:46.934Z,1.00
2019-04-06T16:27:33.305Z,1.00
2019-04-06T16:30:23.452Z,1.10
2019-04-06T16:33:00.922Z,1.20
2019-04-06T16:35:36.794Z,1.10
2019-04-06T16:38:23.202Z,1.07
2019-04-06T16:40:59.160Z,0.90
2019-04-06T16:43:49.044Z,1.00
2019-04-06T16:46:36.461Z,1.10
2019-04-06T16:49:14.334Z,1.00
2019-04-06T16:51:49.644Z,1.03
2019-04-06T16:54:30.744Z,1.00
2019-04-06T16:57:16.361Z,1.40
2019-04-06T16:59:59.918Z,1.00
2019-04-06T17:02:45.576Z,1.10
2019-04-06T17:05:39.508Z,1.00
2019-04-06T17:08:27.051Z,1.20
2019-04-06T17:11:18.567Z,1.00
2019-04-06T17:14:17.469Z,1.10
2019-04-06T17:17:05.067Z,0.50
2019-04-06T17:20:00.958Z,0.60
2019-04-06T17:22:55.036Z,0.40
2019-04-06T17:25:29.002Z,0.30
2019-04-06T17:28:18.968Z,0.50
2019-04-06T17:31:21.167Z,0.43
2019-04-06T17:34:06.625Z,0.50
2019-04-06T17:36:56.384Z,0.40
2019-04-06T17:39:42.309Z,0.50
2019-04-06T17:42:25.741Z,0.70
2019-04-06T17:45:28.663Z,0.70
2019-04-06T17:48:18.511Z,0.70
2019-04-06T17:51:14.481Z,0.60
2019-04-06T17:53:55.884Z,1.00
2019-04-06T17:56:38.797Z,0.50
2019-04-06T17:59:40.969Z,0.40
2019-04-06T18:02:28.188Z,0.67
2019-04-06T18:05:21.645Z,0.60
2019-04-06T18:08:03.661Z,0.50
2019-04-06T18:10:48.254Z,0.40
2019-04-06T18:13:38.069Z,0.80
2019-04-06T18:16:05.756Z,0.40
2019-04-06T18:18:33.615Z,0.43
2019-04-06T18:21:01.642Z,0.60
2019-04-06T18:23:30.054Z,0.50
2019-04-06T18:25:58.387Z,0.60
2019-04-06T18:28:27.040Z,0.40
2019-04-06T18:31:20.210Z,0.50
2019-04-06T18:33:48.127Z,0.40
2019-04-06T18:36:15.920Z,0.40
2019-04-06T18:38:54.930Z,0.70
2019-04-06T18:41:22.668Z,0.70
2019-04-06T18:43:50.477Z,1.60
2019-04-06T18:46:29.269Z,2.10
2019-04-06T18:48:57.388Z,2.90
2019-04-06T18:51:25.407Z,1.80
2019-04-06T18:53:53.097Z,1.73
2019-04-06T18:56:21.297Z,2.33
2019-04-06T18:58:49.196Z,2.17
2019-04-06T19:01:16.984Z,1.60
2019-04-06T19:03:45.158Z,0.80
2019-04-06T19:06:13.101Z,1.00
2019-04-06T19:08:41.326Z,1.12
2019-04-06T19:11:09.688Z,0.93
2019-04-06T19:13:37.581Z,1.30
2019-04-06T19:16:06.107Z,1.37
2019-04-06T19:18:34.007Z,1.27
2019-04-06T19:21:01.762Z,1.40
2019-04-06T19:23:29.770Z,1.00
2019-04-06T19:25:57.902Z,1.07
2019-04-06T19:28:25.667Z,0.80
2019-04-06T19:30:53.359Z,0.90
2019-04-06T19:33:25.055Z,1.00
2019-04-06T19:35:50.666Z,1.00
2019-04-06T19:38:18.921Z,1.43
2019-04-06T19:40:47.300Z,1.10
2019-04-06T19:43:17.314Z,1.03
2019-04-06T19:45:44.998Z,1.00
2019-04-06T19:48:12.848Z,0.70
2019-04-06T19:50:40.743Z,0.67
2019-04-06T19:53:08.508Z,0.77
2019-04-06T19:55:36.608Z,0.80
2019-04-06T19:58:04.948Z,1.33
2019-04-06T20:00:34.991Z,1.40
2019-04-06T20:03:03.198Z,4.70
2019-04-06T20:05:30.997Z,5.97
2019-04-06T20:07:59.195Z,4.90
2019-04-06T20:10:27.454Z,3.57
2019-04-06T20:12:55.453Z,2.33
2019-04-06T20:15:23.440Z,1.60
2019-04-06T20:17:51.627Z,1.30
2019-04-06T20:20:22.367Z,1.07
2019-04-06T20:22:50.441Z,1.67
2019-04-06T20:25:18.215Z,1.13
2019-04-06T20:27:46.364Z,0.90
2019-04-06T20:30:15.022Z,1.20
2019-04-06T20:32:43.510Z,1.27
2019-04-06T20:35:11.942Z,1.30
2019-04-06T20:37:39.899Z,1.30
2019-04-06T20:40:08.706Z,1.03
2019-04-06T20:42:37.867Z,1.00
2019-04-06T20:45:05.980Z,0.80
2019-04-06T20:47:35.531Z,0.93
2019-04-06T20:50:03.929Z,0.77
2019-04-06T20:52:31.731Z,0.80
2019-04-06T20:54:59.395Z,0.90
2019-04-06T20:57:27.244Z,0.97
2019-04-06T20:59:55.086Z,0.70
2019-04-06T21:02:22.801Z,0.77
2019-04-06T21:04:50.661Z,0.90
2019-04-06T21:07:21.674Z,0.70
2019-04-06T21:09:49.409Z,1.00
2019-04-06T21:12:17.111Z,0.67
2019-04-06T21:14:45.396Z,1.00
2019-04-06T21:17:19.630Z,0.90
2019-04-06T21:19:47.840Z,0.90
2019-04-06T21:22:16.134Z,0.93
2019-04-06T21:24:43.999Z,1.20
2019-04-06T21:27:12.393Z,1.33
2019-04-06T21:29:40.787Z,1.27
2019-04-06T21:32:08.762Z,1.30
2019-04-06T21:34:36.462Z,1.10
2019-04-06T21:37:04.216Z,1.70
2019-04-06T21:39:32.381Z,1.20
2019-04-06T21:42:00.669Z,1.30
2019-04-06T21:44:28.564Z,1.00
2019-04-06T21:46:56.964Z,0.80
2019-04-06T21:49:25.324Z,0.83
2019-04-06T21:51:53.018Z,0.60
2019-04-06T21:54:20.724Z,0.70
2019-04-06T21:56:49.071Z,0.80
2019-04-06T21:59:17.480Z,0.80
2019-04-06T22:01:46.518Z,0.90
2019-04-06T22:04:23.561Z,1.10
2019-04-06T22:06:43.746Z,0.90
2019-04-06T22:09:12.715Z,1.27
2019-04-06T22:11:40.453Z,1.13
2019-04-06T22:14:08.148Z,1.07
2019-04-06T22:16:35.852Z,1.00
2019-04-06T22:19:03.648Z,1.07
2019-04-06T22:21:31.999Z,1.30
2019-04-06T22:24:00.241Z,1.80
2019-04-06T22:26:27.954Z,5.60
2019-04-06T22:28:56.023Z,8.07
2019-04-06T22:31:23.796Z,3.73
2019-04-06T22:33:51.511Z,4.40
2019-04-06T22:36:19.220Z,3.50
2019-04-06T22:38:47.024Z,1.47
2019-04-06T22:41:15.182Z,0.87
2019-04-06T22:43:42.919Z,0.97
2019-04-06T22:46:12.287Z,0.70
2019-04-06T22:48:40.394Z,1.10
2019-04-06T22:51:08.504Z,1.00
2019-04-06T22:53:36.245Z,0.90
2019-04-06T22:56:04.457Z,0.90
2019-04-06T22:58:32.385Z,0.50
2019-04-06T23:01:05.719Z,1.20
2019-04-06T23:03:56.152Z,1.00
2019-04-06T23:06:28.863Z,1.27
2019-04-06T23:08:56.636Z,0.80
2019-04-06T23:11:24.913Z,0.80
2019-04-06T23:13:52.757Z,0.93
2019-04-06T23:16:20.700Z,1.10
2019-04-06T23:18:48.392Z,1.13
2019-04-06T23:21:16.121Z,1.00
2019-04-06T23:23:43.836Z,0.70
2019-04-06T23:26:11.535Z,0.70
2019-04-06T23:28:39.249Z,0.67
2019-04-06T23:31:06.957Z,1.03
2019-04-06T23:33:34.655Z,0.80
2019-04-06T23:36:02.386Z,0.90
2019-04-06T23:38:30.105Z,0.93
2019-04-06T23:40:57.815Z,1.10
2019-04-06T23:43:25.607Z,1.20
2019-04-06T23:45:54.877Z,1.63
2019-04-06T23:48:23.270Z,1.00
2019-04-06T23:50:51.601Z,0.90
2019-04-06T23:53:19.395Z,1.00
2019-04-06T23:55:47.102Z,0.90
2019-04-06T23:58:15.238Z,1.00
